메인 페이지
METAR-TAF:

METAR-TAF

공항 :

캘거리 국제공항

캘거리, 앨버타, 캐나다

위도: 51-07N, 경도: 114-01W, 고도: 1077m

현재 날씨관측

예보는 43분 전, 10:00시(UTC)에 발표되었습니다.
서남서4kt
온도 -25°C
습도 69%
기압 1026 hPa
시정: 19.3km
맑음
빙정

METAR: CYYC 181000Z 24004KT 12SM IC SKC M25/M29 A3029 RMK SLP379

시각: 03:43 (10:43 UTC)

예보

예보는 2 시간 5분 전, 08:38시(UTC)에 발표되었습니다.
예보 대상 시간: 18일 09시부터 19일 06시까지 (UTC)
여러 방향의 바람 3kt
시정: 10km
맑음
일시적
18일 12시부터 18일 15시까지 (UTC)
고도 2000ft 상공 구름 조금
18일 1800시부터 (UTC)
여러 방향의 바람 3kt
시정: 10km
고도 8000ft 상공 구름 보통
고도 24000ft 상공 구름 많음
18일 2000시부터 (UTC)
남동8kt
시정: 10km
고도 8000ft 상공 구름 많음
고도 15000ft 상공 구름 많음
19일 0000시부터 (UTC)
남남동8kt
시정: 10km
고도 8000ft 상공 구름 조금
고도 15000ft 상공 구름 많음
19일 0400시부터 (UTC)
남남서10kt
시정: 10km
고도 15000ft 상공 구름 조금
고도 24000ft 상공 구름 보통

TAF: CYYC 180838Z 1809/1906 VRB03KT P6SM SKC TEMPO 1812/1815 FEW020 FM181800 VRB03KT P6SM SCT080 BKN240 FM182000 14008KT P6SM BKN080 BKN150 FM190000 16008KT P6SM FEW080 BKN150 FM190400 20010KT P6SM FEW150 SCT240 RMK NXT FCST BY 181200Z

4,000개 이상의 공항 관측 자료 및 예보 (METAR 및 TAF 보고).

지도상에서 검색 가능한 기상관측소가 노란 점과 빨간 점으로 표시되어 있습니다.

기상관측소 명을 보려면 표시 위로 마우스를 이동하세요.

날씨 관측과 예보를 보려면 클릭하세요.

지도 변경 : 확대하려면 엑스 표시가 있는 녹색 버튼, 축소하려면 빼기 표시가 있는 녹색 버튼, 다음 페이지의 지도를 보려면 녹색 화살표를 클릭하세요.


METAR-TAF: